Time;durP1;ratioP1;P1;durP2;ratioP2;P2;SDS_P1;SDS_P2;PMS_P1;PMS_P2;Temp;Humidity;BMP_temperature;BMP_pressure;BME280_temperature;BME280_humidity;BME280_pressure;Samples;Min_cycle;Max_cycle;Signal;HPM_P1;HPM_P2
2022/08/05 00:02:01;;;;;;;;;7.67;7.00;;;;;22.98;74.14;100446.31;5030650;28;45627;-87
2022/08/05 00:04:27;;;;;;;;;8.67;8.00;;;;;22.85;74.99;100439.50;5023107;28;46312;-87
2022/08/05 00:06:52;;;;;;;;;7.00;7.00;;;;;22.75;74.50;100408.66;5036952;28;45512;-87
2022/08/05 00:09:18;;;;;;;;;7.00;6.00;;;;;22.74;74.04;100412.22;5022594;28;45359;-87
2022/08/05 00:11:43;;;;;;;;;10.67;10.00;;;;;22.34;74.64;100342.13;5017359;28;45295;-87
2022/08/05 00:14:09;;;;;;;;;7.00;7.00;;;;;22.86;74.35;100440.38;5022990;28;45444;-88
2022/08/05 00:16:35;;;;;;;;;6.33;6.33;;;;;22.44;73.78;100374.72;5035769;28;45480;-87
2022/08/05 00:19:00;;;;;;;;;6.67;6.67;;;;;22.84;73.45;100448.41;5036690;28;45500;-86
2022/08/05 00:21:26;;;;;;;;;7.33;7.33;;;;;22.86;73.70;100445.69;5034837;28;45202;-87
2022/08/05 00:23:51;;;;;;;;;7.00;7.00;;;;;22.47;74.15;100384.44;5019607;28;45527;-86
2022/08/05 00:26:18;;;;;;;;;9.33;9.00;;;;;22.71;74.46;100426.50;5019856;28;45331;-87
2022/08/05 00:28:44;;;;;;;;;8.67;8.00;;;;;22.78;74.15;100440.53;5016986;28;46009;-85
2022/08/05 00:31:10;;;;;;;;;9.67;7.00;;;;;21.96;73.48;100293.22;5030037;28;45279;-87
2022/08/05 00:33:35;;;;;;;;;8.00;8.00;;;;;22.44;74.44;100380.03;5033824;28;45462;-86
2022/08/05 00:36:01;;;;;;;;;9.00;8.33;;;;;22.90;73.55;100460.69;5032215;28;45584;-86
2022/08/05 00:38:26;;;;;;;;;8.33;7.33;;;;;22.48;73.99;100383.50;5025120;28;45495;-87
2022/08/05 00:40:55;;;;;;;;;8.00;7.33;;;;;22.85;72.91;100442.16;5024588;28;45399;-87
2022/08/05 00:43:20;;;;;;;;;7.00;6.00;;;;;22.17;73.67;100326.47;5016815;28;45485;-87
2022/08/05 00:45:46;;;;;;;;;7.00;7.00;;;;;22.95;73.25;100449.03;5016379;28;45447;-82
2022/08/05 00:48:21;;;;;;;;;8.00;7.33;;;;;22.93;73.54;100458.84;5024226;28;45541;-87
2022/08/05 00:50:50;;;;;;;;;8.00;7.00;;;;;22.93;73.80;100456.19;5028179;28;45434;-87
2022/08/05 00:53:18;;;;;;;;;9.00;8.33;;;;;22.21;74.27;100322.84;5036509;28;45472;-84
2022/08/05 00:55:44;;;;;;;;;8.00;8.00;;;;;22.92;74.03;100441.13;5026784;28;45494;-87
2022/08/05 00:58:11;;;;;;;;;9.00;8.00;;;;;22.95;73.87;100434.84;5035690;28;45519;-87
2022/08/05 01:00:36;;;;;;;;;8.33;7.67;;;;;22.93;73.79;100440.19;5024244;28;45322;-86
2022/08/05 01:03:02;;;;;;;;;9.00;7.33;;;;;22.44;73.23;100356.97;5031333;28;45456;-84
2022/08/05 01:05:27;;;;;;;;;8.33;7.33;;;;;22.91;73.60;100442.03;5036023;28;45405;-87
2022/08/05 01:07:53;;;;;;;;;7.67;7.67;;;;;22.90;74.33;100439.38;5028789;28;45559;-87
2022/08/05 01:10:26;;;;;;;;;9.00;8.00;;;;;22.89;74.50;100446.50;5018247;28;45477;-87
2022/08/05 01:12:57;;;;;;;;;8.00;6.33;;;;;22.86;74.73;100435.94;5027108;28;46316;-87
2022/08/05 01:15:31;;;;;;;;;8.00;8.00;;;;;22.67;74.50;100400.84;5028634;28;45597;-87
2022/08/05 01:18:02;;;;;;;;;13.33;8.33;;;;;22.84;75.14;100435.97;5019570;28;45212;-87
2022/08/05 01:21:05;;;;;;;;;7.33;7.00;;;;;22.84;75.29;100441.28;5029721;28;45436;-87
2022/08/05 01:23:45;;;;;;;;;8.00;7.00;;;;;22.86;75.25;100438.59;5017255;28;46233;-87
2022/08/05 01:26:46;;;;;;;;;8.67;7.00;;;;;22.79;76.21;100434.31;5028187;28;45307;-87
2022/08/05 01:29:23;;;;;;;;;9.00;7.33;;;;;22.78;75.21;100438.78;5035453;28;45402;-87
2022/08/05 01:31:53;;;;;;;;;7.33;7.33;;;;;22.70;74.63;100424.75;5021947;28;45437;-87
2022/08/05 01:34:26;;;;;;;;;8.00;7.67;;;;;22.76;74.98;100429.94;5028529;28;45630;-87
2022/08/05 01:37:16;;;;;;;;;8.00;8.00;;;;;22.77;75.14;100425.47;5032964;28;45393;-86
2022/08/05 01:39:45;;;;;;;;;8.33;7.67;;;;;22.67;74.90;100397.31;5027117;28;45451;-87
2022/08/05 01:42:13;;;;;;;;;8.00;7.00;;;;;22.66;76.03;100423.06;5027867;28;45520;-87
2022/08/05 01:44:39;;;;;;;;;6.67;6.33;;;;;21.73;75.65;100285.72;5025199;28;46106;-87
2022/08/05 01:47:07;;;;;;;;;7.00;7.00;;;;;22.29;75.38;100369.75;5019429;28;45341;-86
2022/08/05 01:49:34;;;;;;;;;7.67;6.67;;;;;22.64;75.93;100425.75;5025849;28;45534;-86
2022/08/05 01:52:02;;;;;;;;;8.33;7.00;;;;;22.66;74.86;100431.06;5024258;28;45293;-87
2022/08/05 01:54:47;;;;;;;;;6.67;5.67;;;;;22.68;75.00;100429.25;5024168;28;45315;-87
2022/08/05 01:57:19;;;;;;;;;7.00;7.00;;;;;22.38;74.90;100383.72;5019527;28;45446;-86
2022/08/05 01:59:47;;;;;;;;;7.67;7.67;;;;;22.62;75.97;100438.22;5033786;28;47081;-87
2022/08/05 02:02:14;;;;;;;;;8.67;8.67;;;;;22.61;75.89;100431.13;5037465;28;45714;-87
2022/08/05 02:04:44;;;;;;;;;7.33;6.67;;;;;22.64;74.96;100428.41;5037560;28;45895;-87
2022/08/05 02:07:09;;;;;;;;;6.33;6.33;;;;;22.56;75.02;100419.72;5037940;28;45571;-87
2022/08/05 02:09:35;;;;;;;;;7.00;6.00;;;;;22.68;74.95;100425.66;5038342;28;45364;-85
2022/08/05 02:12:40;;;;;;;;;5.33;5.00;;;;;22.62;74.59;100422.25;5019664;28;45514;-87
2022/08/05 02:15:31;;;;;;;;;7.00;5.00;;;;;22.66;74.74;100422.16;5018873;28;45590;-83
2022/08/05 02:18:08;;;;;;;;;5.67;5.00;;;;;22.69;74.44;100422.97;5007469;28;45470;-87
2022/08/05 02:21:15;;;;;;;;;5.67;5.67;;;;;22.70;74.52;100418.53;5021472;28;45397;-87
2022/08/05 02:23:42;;;;;;;;;7.00;5.33;;;;;22.69;74.34;100425.66;5021037;28;45552;-87
2022/08/05 02:26:11;;;;;;;;;6.00;6.00;;;;;22.67;74.08;100422.16;5028902;28;46136;-87
2022/08/05 02:28:40;;;;;;;;;6.00;5.00;;;;;22.65;74.66;100423.97;5018407;28;45331;-87
2022/08/05 02:31:15;;;;;;;;;5.00;4.00;;;;;22.61;74.13;100415.16;5018731;28;45660;-82
2022/08/05 02:33:51;;;;;;;;;4.00;4.00;;;;;22.27;74.24;100358.25;5033733;28;45490;-86
2022/08/05 02:36:19;;;;;;;;;5.00;5.00;;;;;22.66;74.75;100424.84;5020621;28;46392;-86
2022/08/05 02:38:47;;;;;;;;;5.33;5.33;;;;;22.44;74.07;100396.91;5038019;28;45488;-87
2022/08/05 02:41:14;;;;;;;;;7.00;5.00;;;;;22.64;74.48;100430.19;5038576;28;45334;-87
2022/08/05 02:43:42;;;;;;;;;5.00;5.00;;;;;21.99;74.32;100317.09;5020193;28;45355;-87
2022/08/05 02:46:10;;;;;;;;;5.00;4.33;;;;;22.34;73.66;100368.75;5024036;28;46117;-85
2022/08/05 02:48:36;;;;;;;;;4.67;4.00;;;;;22.69;73.54;100430.09;5027885;28;45409;-87
2022/08/05 02:51:04;;;;;;;;;6.00;5.67;;;;;22.70;73.92;100422.09;5018644;28;45540;-87
2022/08/05 02:53:31;;;;;;;;;6.00;6.00;;;;;22.55;73.79;100403.78;5020556;28;45580;-87
2022/08/05 02:55:57;;;;;;;;;6.00;6.00;;;;;22.72;73.91;100422.94;5030667;28;46114;-87
2022/08/05 02:58:24;;;;;;;;;5.33;5.33;;;;;22.62;74.09;100424.00;5017884;28;45536;-87
2022/08/05 03:00:53;;;;;;;;;6.00;5.00;;;;;22.50;73.74;100422.53;5028336;28;45440;-83
2022/08/05 03:03:21;;;;;;;;;5.67;5.67;;;;;22.15;73.94;100346.06;5036517;28;45331;-86
2022/08/05 03:05:47;;;;;;;;;4.00;4.00;;;;;22.63;74.48;100434.63;5037613;28;46050;-87
2022/08/05 03:08:14;;;;;;;;;5.67;5.67;;;;;22.61;75.12;100441.78;5037705;28;45623;-87
2022/08/05 03:10:43;;;;;;;;;6.00;5.67;;;;;22.64;74.78;100435.50;5037773;28;45534;-87
2022/08/05 03:13:14;;;;;;;;;6.67;5.67;;;;;22.41;74.81;100412.94;5036597;28;45434;-82
2022/08/05 03:15:44;;;;;;;;;5.00;5.00;;;;;22.51;74.85;100431.38;5037489;28;46493;-86
2022/08/05 03:18:10;;;;;;;;;7.00;6.00;;;;;22.49;74.98;100422.53;5033014;28;45352;-86
2022/08/05 03:20:36;;;;;;;;;4.33;4.00;;;;;22.44;74.43;100418.19;5025627;28;45526;-86
2022/08/05 03:23:05;;;;;;;;;7.00;7.00;;;;;22.26;74.35;100380.44;5026727;28;45573;-87
2022/08/05 03:25:31;;;;;;;;;6.00;5.00;;;;;22.63;74.32;100445.28;5017889;28;46367;-87
2022/08/05 03:27:57;;;;;;;;;6.00;6.00;;;;;22.64;74.15;100446.16;5018273;28;45252;-87
2022/08/05 03:30:23;;;;;;;;;4.67;4.00;;;;;22.63;73.70;100439.97;5032385;28;45394;-87
2022/08/05 03:32:49;;;;;;;;;5.67;5.00;;;;;22.39;73.97;100409.41;5018658;28;45573;-83
2022/08/05 03:35:15;;;;;;;;;6.00;5.00;;;;;22.34;73.58;100403.34;5022728;28;45808;-86
2022/08/05 03:37:41;;;;;;;;;4.67;4.33;;;;;22.61;73.45;100444.44;5036711;28;45493;-83
2022/08/05 03:40:08;;;;;;;;;6.67;5.00;;;;;22.56;73.24;100438.38;5037338;28;45342;-87
2022/08/05 03:42:34;;;;;;;;;6.00;4.00;;;;;22.64;73.07;100448.81;5035119;28;45466;-87
2022/08/05 03:45:00;;;;;;;;;7.00;4.33;;;;;22.05;73.11;100343.56;5022736;28;45966;-86
2022/08/05 03:47:25;;;;;;;;;4.33;4.33;;;;;22.63;74.02;100447.94;5036524;28;45556;-87
2022/08/05 03:49:51;;;;;;;;;5.33;5.00;;;;;22.63;73.74;100445.28;5036207;28;45470;-87
2022/08/05 03:52:30;;;;;;;;;5.00;4.67;;;;;21.81;72.93;100306.84;5036276;28;45417;-86
2022/08/05 03:55:03;;;;;;;;;5.00;4.00;;;;;22.40;72.93;100407.63;5029957;28;46273;-83
2022/08/05 03:57:32;;;;;;;;;4.00;4.00;;;;;22.63;72.85;100450.63;5028259;28;45385;-87
2022/08/05 04:00:09;;;;;;;;;5.33;5.00;;;;;22.64;72.69;100446.16;5021368;28;45520;-87
2022/08/05 04:02:37;;;;;;;;;5.67;5.33;;;;;22.61;73.04;100452.44;5021837;28;45419;-85
2022/08/05 04:05:04;;;;;;;;;4.33;4.00;;;;;22.57;73.39;100453.41;5026995;28;46111;-86
2022/08/05 04:07:32;;;;;;;;;6.00;6.00;;;;;22.58;74.04;100452.50;5017030;28;45334;-88
2022/08/05 04:09:59;;;;;;;;;4.00;4.00;;;;;21.88;73.97;100336.84;5016989;28;45428;-87
2022/08/05 04:12:25;;;;;;;;;6.00;5.00;;;;;22.54;73.51;100456.16;5017473;28;45473;-86
2022/08/05 04:14:51;;;;;;;;;4.00;4.00;;;;;22.57;73.31;100464.06;5017206;28;46518;-87
2022/08/05 04:17:17;;;;;;;;;4.00;4.00;;;;;22.58;72.30;100456.94;5028000;28;46573;-86
2022/08/05 04:19:47;;;;;;;;;4.67;4.00;;;;;22.60;72.92;100468.44;5024123;28;45468;-84
2022/08/05 04:22:13;;;;;;;;;4.00;4.00;;;;;22.60;73.08;100464.00;5016535;28;45628;-83
2022/08/05 04:24:45;;;;;;;;;5.33;5.00;;;;;22.59;73.34;100472.88;5021548;28;45449;-87
2022/08/05 04:27:14;;;;;;;;;5.00;4.00;;;;;22.59;73.80;100475.56;5036031;28;45715;-86
2022/08/05 04:29:40;;;;;;;;;5.67;4.33;;;;;22.39;73.66;100437.81;5017380;28;45460;-87
2022/08/05 04:32:06;;;;;;;;;6.67;5.67;;;;;22.51;74.12;100458.00;5017520;28;45566;-86
2022/08/05 04:34:32;;;;;;;;;6.00;5.33;;;;;22.55;73.89;100473.88;5034923;28;45285;-87
2022/08/05 04:36:58;;;;;;;;;5.00;5.00;;;;;22.33;73.88;100433.50;5027581;28;45517;-85
2022/08/05 04:39:23;;;;;;;;;4.67;4.67;;;;;22.54;73.83;100472.13;5017430;28;45496;-87
2022/08/05 04:41:49;;;;;;;;;4.00;4.00;;;;;22.06;72.93;100397.63;5032249;28;45582;-86
2022/08/05 04:44:15;;;;;;;;;4.00;4.00;;;;;22.03;73.14;100400.38;5016604;28;45496;-86
2022/08/05 04:46:40;;;;;;;;;4.67;4.00;;;;;22.48;73.54;100471.34;5024937;28;45415;-83
2022/08/05 04:49:06;;;;;;;;;5.67;5.00;;;;;22.25;73.25;100443.44;5024091;28;45518;-87
2022/08/05 04:51:32;;;;;;;;;6.00;5.00;;;;;22.01;73.92;100416.34;5049372;28;45532;-87
2022/08/05 04:53:58;;;;;;;;;4.67;4.67;;;;;22.39;73.50;100489.25;5016424;28;45615;-86
2022/08/05 04:56:24;;;;;;;;;5.33;5.00;;;;;22.41;73.54;100489.25;5024723;28;45915;-86
2022/08/05 04:58:50;;;;;;;;;5.00;4.33;;;;;22.40;73.29;100477.72;5024570;28;45389;-85
2022/08/05 05:01:16;;;;;;;;;5.00;3.67;;;;;22.32;73.33;100463.69;5023115;28;45415;-87
2022/08/05 05:03:41;;;;;;;;;6.00;5.33;;;;;21.46;73.21;100324.34;5045362;28;45473;-86
2022/08/05 05:06:11;;;;;;;;;7.00;5.00;;;;;22.38;74.46;100491.94;5019715;28;45639;-87
2022/08/05 05:08:37;;;;;;;;;4.67;4.67;;;;;22.26;74.02;100477.09;5020325;28;45485;-86
2022/08/05 05:11:03;;;;;;;;;3.67;3.67;;;;;22.35;73.42;100495.56;5037455;28;45343;-87
2022/08/05 05:13:28;;;;;;;;;7.00;6.00;;;;;22.35;73.71;100500.00;5026562;28;45527;-87
2022/08/05 05:15:54;;;;;;;;;7.00;5.33;;;;;22.36;73.42;100501.75;5036022;28;45434;-87
2022/08/05 05:18:20;;;;;;;;;5.00;5.00;;;;;22.02;74.47;100455.38;5034796;28;46013;-87
2022/08/05 05:20:46;;;;;;;;;6.67;5.33;;;;;22.27;74.11;100492.16;5020014;28;45556;-83
2022/08/05 05:23:12;;;;;;;;;5.00;4.33;;;;;22.34;73.73;100512.44;5020119;28;45521;-87
2022/08/05 05:25:42;;;;;;;;;5.00;4.00;;;;;22.15;72.89;100479.94;5035229;28;45346;-87
2022/08/05 05:28:11;;;;;;;;;4.00;4.00;;;;;22.14;72.77;100483.50;5024556;28;45618;-86
2022/08/05 05:30:38;;;;;;;;;6.33;5.00;;;;;22.03;72.82;100467.75;5038851;28;45437;-83
2022/08/05 05:33:06;;;;;;;;;5.00;4.00;;;;;21.93;73.01;100452.88;5025036;28;45594;-86
2022/08/05 05:35:32;;;;;;;;;7.00;6.00;;;;;22.31;72.90;100517.81;5034287;28;45497;-87
2022/08/05 05:38:00;;;;;;;;;5.00;5.00;;;;;22.30;72.83;100510.72;5019188;28;45569;-81
2022/08/05 05:40:26;;;;;;;;;5.67;4.67;;;;;22.29;71.88;100522.28;5029183;28;45504;-81
2022/08/05 05:42:52;;;;;;;;;6.33;5.00;;;;;22.04;72.91;100481.91;5035625;28;45840;-81
2022/08/05 05:45:19;;;;;;;;;6.67;6.00;;;;;22.28;72.63;100524.97;5029255;28;45303;-81
2022/08/05 05:47:45;;;;;;;;;5.33;5.00;;;;;21.87;73.04;100452.97;5032964;28;45623;-81
2022/08/05 05:50:14;;;;;;;;;6.00;6.00;;;;;22.30;73.43;100526.69;5022642;28;45460;-81
2022/08/05 05:52:40;;;;;;;;;7.00;7.00;;;;;21.93;73.59;100476.81;5033363;28;45426;-81
2022/08/05 05:55:08;;;;;;;;;8.00;7.33;;;;;22.21;73.27;100508.22;5018639;28;45434;-81
2022/08/05 05:57:35;;;;;;;;;6.00;6.00;;;;;22.36;72.82;100534.59;5018254;28;45312;-81
2022/08/05 06:00:01;;;;;;;;;7.33;6.33;;;;;22.39;72.83;100530.97;5019419;28;45366;-81
2022/08/05 06:02:26;;;;;;;;;6.00;5.00;;;;;22.25;73.13;100517.94;5036991;28;45521;-81
2022/08/05 06:04:52;;;;;;;;;10.33;10.33;;;;;22.39;72.73;100534.50;5037078;28;45430;-81
2022/08/05 06:07:17;;;;;;;;;7.67;6.00;;;;;22.29;72.80;100514.31;5037249;28;45591;-81
2022/08/05 06:09:43;;;;;;;;;6.33;5.00;;;;;22.41;72.71;100530.03;5036114;28;45338;-81
2022/08/05 06:12:09;;;;;;;;;6.00;5.00;;;;;22.42;72.85;100539.78;5017578;28;45438;-81
2022/08/05 06:14:34;;;;;;;;;6.00;4.00;;;;;22.32;73.01;100524.91;5025720;28;45496;-81
2022/08/05 06:17:01;;;;;;;;;6.00;5.33;;;;;22.43;73.02;100546.84;5024926;28;45462;-81
2022/08/05 06:19:26;;;;;;;;;5.33;5.00;;;;;21.76;72.86;100429.22;5018040;28;45589;-81
2022/08/05 06:21:52;;;;;;;;;7.33;6.00;;;;;22.46;72.74;100537.06;5036070;28;45311;-81
2022/08/05 06:24:18;;;;;;;;;5.00;4.00;;;;;22.45;72.59;100557.47;5029159;28;45352;-81
2022/08/05 06:26:44;;;;;;;;;6.33;5.00;;;;;21.99;72.72;100466.06;5029384;28;45454;-81
2022/08/05 06:29:10;;;;;;;;;7.00;6.67;;;;;22.46;72.34;100542.38;5028991;28;45485;-81
2022/08/05 06:31:36;;;;;;;;;6.67;6.67;;;;;22.45;72.58;100546.84;5036541;28;45288;-81
2022/08/05 06:34:02;;;;;;;;;8.33;8.00;;;;;22.48;72.11;100546.75;5033560;28;45556;-81
2022/08/05 06:36:28;;;;;;;;;6.00;6.00;;;;;22.39;72.38;100536.31;5022933;28;45588;-81
2022/08/05 06:38:54;;;;;;;;;5.00;5.00;;;;;22.48;72.11;100548.53;5021994;28;45422;-81
2022/08/05 06:41:20;;;;;;;;;5.67;5.33;;;;;22.29;72.33;100526.75;5027970;28;46331;-81
2022/08/05 06:43:46;;;;;;;;;5.33;4.33;;;;;22.50;72.68;100558.28;5017696;28;45306;-82
2022/08/05 06:46:12;;;;;;;;;7.33;5.00;;;;;22.53;71.91;100560.00;5016951;28;45496;-81
2022/08/05 06:48:37;;;;;;;;;5.00;5.00;;;;;22.23;71.34;100509.06;5021149;28;45528;-81
2022/08/05 06:51:03;;;;;;;;;5.67;5.67;;;;;22.18;71.18;100501.19;5028389;28;45692;-80
2022/08/05 06:53:29;;;;;;;;;5.33;5.33;;;;;22.52;71.01;100564.47;5029000;28;45590;-81
2022/08/05 06:55:57;;;;;;;;;8.33;6.00;;;;;22.53;71.21;100568.00;4984677;28;1452687;-80
2022/08/05 06:58:22;;;;;;;;;4.00;3.33;;;;;22.37;71.71;100554.97;5038226;28;45456;-80
2022/08/05 07:00:48;;;;;;;;;6.00;5.33;;;;;22.53;71.25;100579.50;5036696;28;46514;-81
2022/08/05 07:03:13;;;;;;;;;7.00;6.00;;;;;22.32;71.23;100554.19;5037684;28;45557;-81
2022/08/05 07:05:39;;;;;;;;;7.00;6.00;;;;;22.39;72.11;100579.75;5037461;28;45677;-81
2022/08/05 07:08:05;;;;;;;;;8.00;6.00;;;;;22.23;71.57;100552.50;5037453;28;45271;-81
2022/08/05 07:10:30;;;;;;;;;6.00;4.67;;;;;22.50;70.99;100584.91;5018493;28;46385;-81
2022/08/05 07:18:24;;;;;;;;;6.00;5.00;;;;;22.71;71.17;100591.59;5020905;28;45367;-81
2022/08/05 07:20:50;;;;;;;;;4.00;4.00;;;;;22.46;70.58;100537.06;5029927;28;45333;-81
2022/08/05 07:23:15;;;;;;;;;4.67;4.00;;;;;21.95;69.78;100453.72;5029010;28;45484;-82
2022/08/05 07:25:41;;;;;;;;;5.00;4.00;;;;;22.83;69.91;100595.78;5036632;28;45531;-80
2022/08/05 07:28:06;;;;;;;;;4.00;3.00;;;;;22.85;69.47;100596.66;5018541;28;45493;-81
2022/08/05 07:30:34;;;;;;;;;5.33;5.33;;;;;22.87;69.18;100593.97;5023641;28;46346;-81
2022/08/05 07:33:04;;;;;;;;;2.67;2.67;;;;;22.90;69.31;100599.19;5029092;28;45352;-81
2022/08/05 07:35:31;;;;;;;;;5.33;4.00;;;;;22.93;69.12;100597.38;5021309;28;45538;-81
2022/08/05 07:37:56;;;;;;;;;3.00;3.00;;;;;22.57;68.79;100545.72;5022344;28;45277;-81
2022/08/05 07:40:22;;;;;;;;;4.00;4.00;;;;;22.97;69.05;100611.50;5029984;28;45331;-81
2022/08/05 07:42:48;;;;;;;;;4.67;4.00;;;;;22.73;69.21;100578.25;5029231;28;45382;-82
2022/08/05 07:45:14;;;;;;;;;4.33;3.67;;;;;22.95;68.65;100610.66;5023199;28;45512;-81
2022/08/05 07:47:41;;;;;;;;;2.67;2.67;;;;;22.64;69.15;100558.88;5033861;28;45460;-81
2022/08/05 07:50:07;;;;;;;;;4.00;3.00;;;;;22.72;68.84;100577.38;5026955;28;46380;-81
2022/08/05 07:52:42;;;;;;;;;3.33;3.00;;;;;22.97;69.08;100630.16;5026909;28;45449;-81
2022/08/05 07:55:08;;;;;;;;;4.33;4.00;;;;;22.79;69.01;100594.97;5034467;28;45453;-82
2022/08/05 07:57:35;;;;;;;;;3.33;3.33;;;;;22.88;68.99;100609.00;5024560;28;45244;-81
2022/08/05 08:00:01;;;;;;;;;4.33;4.33;;;;;22.90;69.09;100596.53;5028834;28;45475;-82
2022/08/05 08:02:28;;;;;;;;;7.00;5.33;;;;;23.00;69.19;100595.47;5017050;28;45619;-82
2022/08/05 08:04:54;;;;;;;;;4.33;3.00;;;;;23.28;68.52;100632.22;5017476;28;45532;-82
2022/08/05 08:07:20;;;;;;;;;4.00;4.00;;;;;23.31;67.83;100635.69;5034963;28;45496;-82
2022/08/05 08:09:47;;;;;;;;;4.00;4.00;;;;;23.22;68.29;100625.25;5036958;28;46130;-82
2022/08/05 08:12:14;;;;;;;;;4.00;4.00;;;;;23.30;67.74;100623.28;5018417;28;45379;-82
2022/08/05 08:14:40;;;;;;;;;3.33;3.00;;;;;23.29;67.50;100620.66;5016940;28;45470;-83
2022/08/05 08:17:09;;;;;;;;;5.00;5.00;;;;;23.19;66.93;100607.50;5016745;28;45941;-82
2022/08/05 08:19:39;;;;;;;;;4.67;4.00;;;;;23.47;67.66;100648.69;5024375;28;45953;-82
2022/08/05 08:22:07;;;;;;;;;4.00;3.67;;;;;23.38;66.73;100615.13;5028970;28;45348;-82
2022/08/05 08:24:33;;;;;;;;;4.33;4.33;;;;;23.47;67.36;100638.91;5035831;28;45479;-81
2022/08/05 08:26:59;;;;;;;;;4.00;4.00;;;;;23.55;66.67;100636.06;5031795;28;45382;-81
2022/08/05 08:29:25;;;;;;;;;3.67;2.67;;;;;23.26;66.48;100580.72;5016762;28;45504;-82
2022/08/05 08:31:51;;;;;;;;;4.67;4.33;;;;;23.28;66.43;100579.81;5029207;28;45501;-82
2022/08/05 08:34:18;;;;;;;;;3.67;3.00;;;;;23.69;66.26;100635.75;5019113;28;45425;-81
2022/08/05 08:36:44;;;;;;;;;3.33;3.33;;;;;23.20;65.80;100548.00;5031070;28;45614;-82
2022/08/05 08:39:09;;;;;;;;;4.00;3.33;;;;;23.75;65.70;100646.28;5024176;28;46207;-83
2022/08/05 08:41:36;;;;;;;;;2.67;2.67;;;;;23.75;66.14;100636.50;5035134;28;45384;-82
2022/08/05 08:44:04;;;;;;;;;6.00;4.00;;;;;23.60;67.14;100611.06;5035404;28;45541;-82
2022/08/05 08:46:31;;;;;;;;;4.00;4.00;;;;;23.29;66.98;100541.56;5020072;28;45591;-82
2022/08/05 08:48:57;;;;;;;;;5.67;5.33;;;;;23.14;67.63;100518.81;5027754;28;46045;-82
2022/08/05 08:51:30;;;;;;;;;3.67;3.67;;;;;23.78;67.06;100619.59;5020438;28;45484;-82
2022/08/05 08:53:56;;;;;;;;;4.00;4.00;;;;;24.19;66.71;100644.38;5017507;28;45335;-82
2022/08/05 08:56:22;;;;;;;;;4.33;4.00;;;;;23.98;65.57;100585.31;5030938;28;45421;-82
2022/08/05 08:58:48;;;;;;;;;4.00;4.00;;;;;24.48;65.46;100648.13;5023967;28;45698;-82
2022/08/05 09:01:15;;;;;;;;;5.00;4.00;;;;;24.58;64.85;100650.53;5026602;28;45476;-82
2022/08/05 09:03:41;;;;;;;;;2.67;2.67;;;;;24.63;64.22;100650.44;5034142;28;45552;-82
2022/08/05 09:06:07;;;;;;;;;5.00;5.00;;;;;24.61;64.45;100646.91;5022841;28;45354;-82
2022/08/05 09:08:32;;;;;;;;;4.00;4.00;;;;;24.55;63.92;100647.97;5031303;28;45972;-81
2022/08/05 09:10:58;;;;;;;;;3.33;3.00;;;;;24.27;64.40;100613.03;5019319;28;45485;-82
2022/08/05 09:13:24;;;;;;;;;8.00;7.00;;;;;24.08;64.99;100587.75;5015894;28;45384;-83
2022/08/05 09:15:54;;;;;;;;;4.00;3.33;;;;;24.37;65.02;100633.25;5016430;28;45449;-83
2022/08/05 09:18:20;;;;;;;;;3.67;3.00;;;;;24.25;66.05;100605.97;5031988;28;45399;-83
2022/08/05 09:20:46;;;;;;;;;4.00;3.33;;;;;24.25;65.47;100609.53;5034797;28;45522;-82
2022/08/05 09:23:16;;;;;;;;;8.00;5.00;;;;;24.43;65.56;100645.56;5020409;28;45297;-83
2022/08/05 09:25:44;;;;;;;;;5.33;3.33;;;;;24.35;65.62;100640.44;5028990;28;45378;-82
2022/08/05 09:28:18;;;;;;;;;3.00;3.00;;;;;24.20;66.09;100649.69;5018590;28;45575;-82
2022/08/05 09:30:55;;;;;;;;;4.00;4.00;;;;;24.14;67.00;100646.31;5028369;28;45497;-82
2022/08/05 09:33:22;;;;;;;;;3.00;3.00;;;;;24.10;67.25;100650.84;5016435;28;45390;-82
2022/08/05 09:36:04;;;;;;;;;4.00;3.00;;;;;24.05;67.08;100655.38;5030931;28;45498;-82
2022/08/05 09:38:31;;;;;;;;;3.67;3.00;;;;;23.70;67.11;100586.88;5022264;28;46194;-82
2022/08/05 09:41:06;;;;;;;;;3.33;3.00;;;;;24.06;66.99;100657.16;5035163;28;45484;-82
2022/08/05 09:43:34;;;;;;;;;3.67;3.67;;;;;23.91;66.88;100625.50;5017647;28;45500;-82
2022/08/05 09:46:00;;;;;;;;;9.00;8.33;;;;;23.83;66.97;100617.69;5015696;28;45485;-82
2022/08/05 09:48:28;;;;;;;;;4.00;4.00;;;;;24.08;67.02;100658.00;5016984;28;45476;-82
2022/08/05 09:51:02;;;;;;;;;4.33;4.00;;;;;24.07;65.59;100660.69;5018464;28;45488;-83
2022/08/05 09:53:29;;;;;;;;;4.00;4.00;;;;;24.11;66.33;100663.25;5019121;28;45595;-83
2022/08/05 09:56:01;;;;;;;;;4.00;4.00;;;;;24.24;66.03;100660.31;5018394;28;45430;-82
2022/08/05 09:58:27;;;;;;;;;7.33;5.67;;;;;24.35;65.60;100659.13;5019123;28;46133;-82
2022/08/05 10:01:00;;;;;;;;;5.00;5.00;;;;;24.45;64.89;100659.75;5018363;28;45580;-83
2022/08/05 10:03:26;;;;;;;;;9.00;7.00;;;;;24.52;64.58;100658.72;5021604;28;45442;-83
2022/08/05 10:06:04;;;;;;;;;8.67;7.00;;;;;24.61;63.70;100660.25;5031416;28;45299;-83
2022/08/05 10:08:29;;;;;;;;;10.00;9.00;;;;;24.69;63.32;100663.63;5024957;28;46038;-83
2022/08/05 10:10:56;;;;;;;;;11.00;9.00;;;;;24.70;62.55;100646.66;5019101;28;45385;-82
2022/08/05 10:13:36;;;;;;;;;9.33;9.33;;;;;24.88;63.36;100660.44;5031335;28;45408;-82
2022/08/05 10:16:06;;;;;;;;;6.00;5.00;;;;;24.94;62.86;100655.78;5029494;28;45618;-82
2022/08/05 10:18:33;;;;;;;;;3.00;3.00;;;;;25.04;61.22;100664.44;5021698;28;45533;-82
2022/08/05 10:21:06;;;;;;;;;5.67;4.00;;;;;25.20;61.10;100651.50;5033807;28;45346;-82
2022/08/05 10:23:34;;;;;;;;;4.00;4.00;;;;;25.40;61.13;100656.31;5025289;28;45424;-82
2022/08/05 10:26:05;;;;;;;;;4.00;2.67;;;;;25.56;60.49;100652.25;5037253;28;45529;-82
2022/08/05 10:28:31;;;;;;;;;4.00;4.00;;;;;25.59;59.44;100629.88;5021120;28;45613;-82
2022/08/05 10:30:59;;;;;;;;;4.67;4.67;;;;;25.75;59.63;100649.88;5032585;28;45290;-82
2022/08/05 10:33:28;;;;;;;;;4.00;2.67;;;;;25.92;59.38;100657.41;5017779;28;45374;-82
2022/08/05 10:35:55;;;;;;;;;7.00;4.00;;;;;25.95;58.69;100659.13;5018154;28;45455;-82
2022/08/05 10:38:23;;;;;;;;;4.00;3.00;;;;;25.94;58.89;100658.25;5032961;28;46118;-82
2022/08/05 10:40:48;;;;;;;;;5.00;4.00;;;;;25.98;58.68;100659.00;5022289;28;45473;-82
2022/08/05 10:43:33;;;;;;;;;3.67;3.33;;;;;26.06;58.76;100661.44;5028027;28;45328;-83
2022/08/05 10:46:04;;;;;;;;;6.67;6.67;;;;;26.25;58.26;100653.69;5033254;28;45425;-81
2022/08/05 10:48:38;;;;;;;;;2.00;0.67;;;;;26.42;57.76;100653.97;5017483;28;46219;-82
2022/08/05 10:51:13;;;;;;;;;4.33;4.00;;;;;26.60;57.03;100620.38;5029165;28;45638;-82
2022/08/05 10:53:52;;;;;;;;;4.00;3.67;;;;;27.21;55.65;100649.41;5037018;28;45454;-82
2022/08/05 10:56:24;;;;;;;;;4.00;4.00;;;;;27.55;55.37;100650.84;5037473;28;45392;-82
2022/08/05 10:58:52;;;;;;;;;3.00;3.00;;;;;27.86;54.20;100650.50;5018921;28;46198;-81
2022/08/05 11:01:28;;;;;;;;;4.33;3.33;;;;;28.26;52.63;100651.59;5020870;28;45533;-83
2022/08/05 11:04:07;;;;;;;;;3.00;2.00;;;;;28.79;52.20;100661.00;5026316;28;45506;-82
2022/08/05 11:06:34;;;;;;;;;3.67;3.00;;;;;28.87;50.03;100647.19;5033331;28;45569;-80
2022/08/05 11:09:18;;;;;;;;;2.00;2.00;;;;;28.80;50.07;100641.25;5020668;28;46262;-80
2022/08/05 11:11:49;;;;;;;;;2.00;2.00;;;;;28.70;50.32;100624.63;5036312;28;45459;-79
2022/08/05 11:14:36;;;;;;;;;2.67;2.00;;;;;28.81;50.13;100650.16;5036348;28;45484;-80
2022/08/05 11:17:26;;;;;;;;;3.00;2.33;;;;;28.84;49.21;100636.59;5022014;28;45342;-80
2022/08/05 11:19:54;;;;;;;;;4.33;2.00;;;;;28.52;49.20;100604.81;5023340;28;45472;-80
2022/08/05 11:22:42;;;;;;;;;4.00;3.00;;;;;28.86;49.45;100646.34;5015619;28;45445;-79
2022/08/05 11:25:45;;;;;;;;;2.67;2.00;;;;;28.92;49.44;100640.69;5056014;28;45595;-79
2022/08/05 11:28:11;;;;;;;;;2.33;2.33;;;;;28.79;49.91;100647.56;5018106;28;45340;-79
2022/08/05 11:30:54;;;;;;;;;3.33;1.00;;;;;28.61;49.36;100649.25;5031181;28;46258;-80
2022/08/05 11:33:27;;;;;;;;;2.00;1.67;;;;;28.28;49.73;100606.72;5016644;28;45374;-79
2022/08/05 11:35:58;;;;;;;;;1.33;1.33;;;;;28.52;49.15;100641.56;5016418;28;45430;-80
2022/08/05 11:38:53;;;;;;;;;2.00;2.00;;;;;28.70;49.50;100639.91;5031916;28;45367;-80